Terminal Aerodrome Forecast
Issued by NWS

Home | Current Version | Previous Version | Text Only | Print | Product List | Glossary On
Versions: 1 2 3 4 5 6 7 8 9 10 11 12
000
FTUS42 TJSJ 161751
TAFJPS
TAF
TJPS 161751Z 1618/1718 08012KT P6SM FEW025 SCT050
     FM162330 07006KT P6SM FEW030
     FM170300 05004KT P6SM SKC
     FM171450 10012KT P6SM FEW030
      AMD NOT SKED TIL 170300=

USA.gov is the U.S. government's official web portal to all federal, state and local government web resources and services.